Time;durP1;ratioP1;P1;durP2;ratioP2;P2;SDS_P1;SDS_P2;PMS_P1;PMS_P2;Temp;Humidity;BMP_temperature;BMP_pressure;BME280_temperature;BME280_humidity;BME280_pressure;Samples;Min_cycle;Max_cycle;Signal;HPM_P1;HPM_P2
2024/03/23 00:02:11;;;;;;;14.15;1.83;;;;;;;15.31;50.73;100864.03;5008471;28;20038;-68
2024/03/23 00:04:37;;;;;;;11.32;2.83;;;;;;;15.29;49.74;100859.81;5007299;28;20038;-68
2024/03/23 00:07:03;;;;;;;7.07;2.58;;;;;;;15.22;50.68;100853.31;5007276;28;20037;-68
2024/03/23 00:09:30;;;;;;;13.57;3.25;;;;;;;15.15;50.68;100855.84;5006421;28;20038;-69
2024/03/23 00:11:56;;;;;;;12.02;2.90;;;;;;;15.07;51.02;100856.59;5025750;28;20030;-68
2024/03/23 00:14:23;;;;;;;5.57;2.13;;;;;;;15.06;50.01;100863.03;5025399;28;20030;-69
2024/03/23 00:16:49;;;;;;;5.70;2.38;;;;;;;15.03;50.83;100854.38;5023422;28;20034;-69
2024/03/23 00:19:15;;;;;;;11.27;2.55;;;;;;;14.98;51.06;100862.97;4991612;28;20037;-68
2024/03/23 00:21:42;;;;;;;6.35;2.45;;;;;;;14.96;50.83;100864.13;5007751;28;20038;-69
2024/03/23 00:24:08;;;;;;;13.93;3.33;;;;;;;14.91;49.57;100855.63;5006255;28;20038;-69
2024/03/23 00:26:35;;;;;;;16.13;2.13;;;;;;;14.90;49.58;100872.84;5026068;28;20053;-69
2024/03/23 00:29:01;;;;;;;9.63;1.63;;;;;;;14.89;49.45;100868.44;5025331;28;20037;-69
2024/03/23 00:31:27;;;;;;;5.82;1.80;;;;;;;14.88;49.57;100872.16;5006285;28;20041;-68
2024/03/23 00:33:54;;;;;;;11.23;2.13;;;;;;;14.89;49.79;100876.53;5019205;28;20034;-68
2024/03/23 00:36:20;;;;;;;17.45;3.10;;;;;;;14.85;49.63;100873.28;4997327;28;20433;-69
2024/03/23 00:38:47;;;;;;;6.50;1.73;;;;;;;14.83;50.45;100869.06;5021280;28;20021;-69
2024/03/23 00:41:14;;;;;;;5.63;1.55;;;;;;;14.79;49.96;100863.16;5034024;28;20391;-69
2024/03/23 00:43:40;;;;;;;4.97;1.60;;;;;;;14.83;50.83;100869.06;5017110;28;20036;-69
2024/03/23 00:46:06;;;;;;;8.95;2.05;;;;;;;14.83;49.46;100853.72;5034913;28;20022;-68
2024/03/23 00:48:33;;;;;;;6.05;1.77;;;;;;;14.80;50.58;100858.56;5035004;28;20018;-69
2024/03/23 00:50:59;;;;;;;7.10;2.15;;;;;;;14.79;50.58;100852.34;5034947;28;20029;-69
2024/03/23 00:53:25;;;;;;;4.93;1.42;;;;;;;14.77;49.15;100848.94;5034886;28;20068;-69
2024/03/23 00:55:51;;;;;;;3.15;1.30;;;;;;;14.76;49.85;100841.03;5017137;28;20550;-69
2024/03/23 00:58:17;;;;;;;4.78;1.20;;;;;;;14.76;49.83;100841.03;5017492;28;20567;-69
2024/03/23 01:00:42;;;;;;;5.57;1.60;;;;;;;14.73;49.80;100836.78;5001247;28;20127;-69
2024/03/23 01:03:07;;;;;;;6.53;1.77;;;;;;;14.73;50.26;100825.16;5017615;28;20026;-69
2024/03/23 01:05:33;;;;;;;5.68;1.42;;;;;;;14.74;49.72;100829.56;5016929;28;20025;-68
2024/03/23 01:07:58;;;;;;;8.02;1.52;;;;;;;14.72;49.20;100818.06;5016900;28;20021;-69
2024/03/23 01:10:23;;;;;;;6.22;1.40;;;;;;;14.72;48.83;100826.16;5016847;28;20112;-69
2024/03/23 01:12:49;;;;;;;4.00;1.20;;;;;;;14.72;49.99;100823.44;5016810;28;20030;-67
2024/03/23 01:15:15;;;;;;;6.47;1.25;;;;;;;14.74;49.46;100816.06;5000689;28;20052;-68
2024/03/23 01:17:40;;;;;;;3.63;1.48;;;;;;;14.77;49.85;100815.75;5017059;28;20045;-67
2024/03/23 01:20:06;;;;;;;3.40;1.20;;;;;;;14.79;48.48;100819.16;5016790;28;20029;-67
2024/03/23 01:22:31;;;;;;;6.18;1.63;;;;;;;14.80;49.96;100824.38;5016692;28;20032;-67
2024/03/23 01:24:57;;;;;;;7.75;1.52;;;;;;;14.81;49.64;100817.97;5016704;28;20025;-67
2024/03/23 01:27:23;;;;;;;9.93;1.75;;;;;;;14.85;49.82;100823.91;5016507;28;20036;-67
2024/03/23 01:29:48;;;;;;;8.85;2.17;;;;;;;14.86;49.48;100820.19;5000244;28;20029;-67
2024/03/23 01:32:13;;;;;;;2.67;1.90;;;;;;;14.90;50.16;100819.75;5000206;28;20120;-67
2024/03/23 01:34:39;;;;;;;3.22;1.17;;;;;;;14.91;48.62;100809.78;4999902;28;20052;-68
2024/03/23 01:37:04;;;;;;;9.48;1.38;;;;;;;14.91;49.55;100794.44;5016592;28;20029;-67
2024/03/23 01:39:29;;;;;;;8.45;1.77;;;;;;;14.90;49.10;100792.78;5016193;28;20030;-67
2024/03/23 01:41:55;;;;;;;2.20;1.08;;;;;;;14.89;49.28;100788.38;5033984;28;20056;-66
2024/03/23 01:44:20;;;;;;;8.57;1.52;;;;;;;14.92;49.38;100789.91;5016355;28;20489;-66
2024/03/23 01:46:46;;;;;;;11.85;2.13;;;;;;;14.92;49.12;100789.91;5016135;28;20091;-67
2024/03/23 01:49:11;;;;;;;12.32;1.83;;;;;;;14.93;49.75;100789.75;5016718;28;20055;-66
2024/03/23 01:51:37;;;;;;;4.18;1.10;;;;;;;14.94;48.42;100795.97;5017168;28;20045;-66
2024/03/23 01:54:03;;;;;;;13.68;2.13;;;;;;;14.93;49.24;100794.31;5016151;28;20037;-67
2024/03/23 01:56:35;;;;;;;6.15;1.35;;;;;;;14.92;49.13;100787.22;5016457;28;20396;-67
2024/03/23 01:59:01;;;;;;;2.95;1.20;;;;;;;14.91;48.65;100797.16;4999664;28;20488;-67
2024/03/23 02:01:27;;;;;;;5.28;1.70;;;;;;;14.90;48.63;100805.41;4999662;28;20131;-67
2024/03/23 02:03:52;;;;;;;3.88;1.67;;;;;;;14.88;49.34;100783.16;5033734;28;20488;-66
2024/03/23 02:06:17;;;;;;;7.10;1.10;;;;;;;14.87;49.07;100781.44;5015978;28;20048;-66
2024/03/23 02:08:43;;;;;;;5.07;1.35;;;;;;;14.86;48.93;100777.03;5015760;28;20030;-66
2024/03/23 02:11:09;;;;;;;8.75;1.20;;;;;;;14.87;49.44;100767.97;5033461;28;20048;-66
2024/03/23 02:13:34;;;;;;;4.30;1.00;;;;;;;14.84;49.34;100750.25;5015896;28;20053;-66
2024/03/23 02:15:59;;;;;;;5.32;2.28;;;;;;;14.80;48.98;100746.16;4999323;28;20408;-66
2024/03/23 02:18:25;;;;;;;4.53;1.23;;;;;;;14.80;49.15;100767.72;5015695;28;20057;-66
2024/03/23 02:20:50;;;;;;;6.65;1.25;;;;;;;14.82;49.33;100775.69;5015725;28;20100;-65
2024/03/23 02:23:16;;;;;;;5.07;1.90;;;;;;;14.80;48.08;100783.06;5033391;28;20057;-65
2024/03/23 02:25:41;;;;;;;6.63;1.65;;;;;;;14.80;48.32;100793.84;4998982;28;20428;-65
2024/03/23 02:28:07;;;;;;;11.57;2.53;;;;;;;14.77;49.29;100807.69;4999217;28;20082;-65
2024/03/23 02:30:32;;;;;;;5.53;1.30;;;;;;;14.74;49.11;100786.41;5033386;28;20041;-65
2024/03/23 02:32:58;;;;;;;4.18;1.73;;;;;;;14.73;48.33;100776.63;5033156;28;20033;-65
2024/03/23 02:35:23;;;;;;;5.13;1.73;;;;;;;14.70;49.84;100755.38;4999165;28;20500;-66
2024/03/23 02:37:49;;;;;;;10.95;1.50;;;;;;;14.68;49.22;100758.22;4999073;28;20397;-65
2024/03/23 02:40:15;;;;;;;10.27;1.65;;;;;;;14.70;49.81;100760.75;5034292;28;20061;-65
2024/03/23 02:42:41;;;;;;;9.35;1.48;;;;;;;14.72;48.65;100761.44;4999058;28;20029;-65
2024/03/23 02:45:06;;;;;;;2.97;1.35;;;;;;;14.70;49.31;100752.66;5015358;28;20029;-66
2024/03/23 02:47:32;;;;;;;5.90;2.60;;;;;;;14.71;48.51;100763.31;5038843;28;20532;-65
2024/03/23 02:49:58;;;;;;;8.02;1.55;;;;;;;14.76;48.13;100769.06;5035162;28;20508;-65
2024/03/23 02:52:23;;;;;;;10.65;1.50;;;;;;;14.77;49.57;100765.34;5035076;28;20027;-65
2024/03/23 02:54:48;;;;;;;5.53;1.38;;;;;;;14.81;49.04;100763.19;5052858;28;20489;-65
2024/03/23 02:57:14;;;;;;;4.15;1.17;;;;;;;14.84;49.17;100774.53;5092271;22;20033;-66
2024/03/23 02:59:39;;;;;;;10.70;2.03;;;;;;;14.90;48.22;100773.03;5015287;28;20151;-65
2024/03/23 03:02:05;;;;;;;6.03;1.55;;;;;;;14.95;48.15;100776.09;4995362;28;20034;-65
2024/03/23 03:04:31;;;;;;;7.35;1.10;;;;;;;14.97;49.51;100782.19;5013525;28;20493;-64
2024/03/23 03:06:56;;;;;;;8.50;1.65;;;;;;;14.98;48.83;100781.19;4999743;28;20045;-65
2024/03/23 03:09:21;;;;;;;4.65;1.48;;;;;;;14.98;49.38;100787.44;5015956;28;20034;-65
2024/03/23 03:11:47;;;;;;;9.48;1.95;;;;;;;15.00;48.19;100789.97;5002224;28;20080;-65
2024/03/23 03:14:12;;;;;;;7.72;1.33;;;;;;;14.99;48.66;100793.69;5003121;28;20038;-65
2024/03/23 03:16:38;;;;;;;10.52;1.80;;;;;;;14.96;49.15;100789.41;5002578;28;20038;-65
2024/03/23 03:19:03;;;;;;;7.20;1.75;;;;;;;14.97;48.29;100784.88;5016122;28;20033;-64
2024/03/23 03:21:29;;;;;;;5.13;1.40;;;;;;;14.98;48.91;100773.09;5015564;28;20049;-65
2024/03/23 03:23:56;;;;;;;7.68;1.40;;;;;;;14.97;48.20;100779.47;5015880;28;20033;-65
2024/03/23 03:26:21;;;;;;;9.85;1.52;;;;;;;14.99;48.60;100790.97;4999507;28;20057;-65
2024/03/23 03:28:48;;;;;;;6.00;1.08;;;;;;;14.99;48.32;100788.28;5019854;28;20490;-65
2024/03/23 03:31:18;;;;;;;7.97;1.90;;;;;;;14.97;49.31;100795.66;5019411;28;20557;-64
2024/03/23 03:33:43;;;;;;;9.52;1.77;;;;;;;15.00;48.03;100800.75;5019018;28;20030;-65
2024/03/23 03:36:08;;;;;;;3.13;1.10;;;;;;;14.98;48.92;100797.38;5036502;28;20037;-65
2024/03/23 03:38:38;;;;;;;6.07;1.67;;;;;;;15.01;48.08;100805.16;5018613;28;20113;-64
2024/03/23 03:41:03;;;;;;;7.20;1.58;;;;;;;15.00;48.01;100806.13;5018458;28;20116;-65
2024/03/23 03:43:29;;;;;;;3.20;2.08;;;;;;;14.97;49.46;100795.66;5018528;28;20129;-65
2024/03/23 03:45:55;;;;;;;11.48;1.83;;;;;;;14.98;49.21;100794.66;5018426;28;20033;-64
2024/03/23 03:48:21;;;;;;;3.88;2.15;;;;;;;14.96;48.60;100785.91;5018471;28;20117;-65
2024/03/23 03:50:46;;;;;;;6.93;1.42;;;;;;;14.95;48.08;100786.88;5018814;28;20057;-65
2024/03/23 03:53:11;;;;;;;6.47;1.60;;;;;;;14.96;48.95;100785.91;5018524;28;20026;-64
2024/03/23 03:55:37;;;;;;;8.73;1.45;;;;;;;14.96;48.10;100783.19;5001747;28;20040;-65
2024/03/23 03:58:02;;;;;;;5.93;1.95;;;;;;;14.94;48.14;100786.03;5001739;28;20453;-65
2024/03/23 04:00:28;;;;;;;4.88;1.42;;;;;;;14.92;48.48;100777.28;5001914;28;20068;-65
2024/03/23 04:02:53;;;;;;;6.68;1.42;;;;;;;14.92;48.40;100776.41;5001760;28;20034;-65
2024/03/23 04:05:19;;;;;;;7.68;1.75;;;;;;;14.87;48.82;100778.75;5018366;28;20098;-64
2024/03/23 04:07:45;;;;;;;5.05;1.95;;;;;;;14.87;48.70;100776.91;5018226;28;20026;-65
2024/03/23 04:10:11;;;;;;;12.50;1.65;;;;;;;14.87;47.85;100779.59;5014912;28;20521;-65
2024/03/23 04:12:36;;;;;;;5.40;1.33;;;;;;;14.88;48.06;100785.84;5016070;28;20121;-64
2024/03/23 04:15:03;;;;;;;8.98;1.90;;;;;;;14.87;48.82;100787.69;5014610;28;20044;-65
2024/03/23 04:17:31;;;;;;;6.40;1.65;;;;;;;14.84;48.71;100774.53;5015135;28;20506;-64
2024/03/23 04:19:57;;;;;;;10.70;1.80;;;;;;;14.86;47.92;100777.03;5016915;28;20033;-64
2024/03/23 04:22:24;;;;;;;7.40;2.33;;;;;;;14.87;48.73;100778.75;4998270;28;20037;-64
2024/03/23 04:24:49;;;;;;;9.52;2.47;;;;;;;14.83;48.60;100774.66;5014661;28;20038;-64
2024/03/23 04:27:14;;;;;;;10.07;2.35;;;;;;;14.84;47.89;100779.06;5014529;28;20490;-66
2024/03/23 04:29:40;;;;;;;7.03;2.75;;;;;;;14.80;47.87;100769.59;5017689;28;20041;-65
2024/03/23 04:32:05;;;;;;;7.20;2.63;;;;;;;14.79;47.98;100776.84;5017624;28;20513;-65
2024/03/23 04:34:32;;;;;;;4.22;2.15;;;;;;;14.72;49.18;100759.59;4997690;28;20041;-65
2024/03/23 04:36:58;;;;;;;8.40;2.65;;;;;;;14.74;48.56;100767.53;4998027;28;20547;-64
2024/03/23 04:39:23;;;;;;;4.90;2.20;;;;;;;14.70;48.90;100775.09;4997821;28;20037;-64
2024/03/23 04:41:49;;;;;;;7.15;2.33;;;;;;;14.71;49.19;100773.25;4998043;28;20057;-64
2024/03/23 04:44:14;;;;;;;6.63;2.33;;;;;;;14.68;48.59;100768.16;5003008;28;20079;-64
2024/03/23 04:46:40;;;;;;;11.63;2.25;;;;;;;14.66;49.35;100770.16;5017453;28;20064;-65
2024/03/23 04:49:05;;;;;;;12.05;3.00;;;;;;;14.64;48.97;100769.47;5017288;28;20030;-64
2024/03/23 04:51:36;;;;;;;5.90;2.22;;;;;;;14.63;49.08;100770.50;5034850;28;20040;-64
2024/03/23 04:54:01;;;;;;;9.52;2.60;;;;;;;14.58;48.78;100763.72;5017477;28;20025;-65
2024/03/23 04:56:27;;;;;;;5.47;2.00;;;;;;;14.57;48.75;100780.88;5000848;28;20390;-65
2024/03/23 04:58:52;;;;;;;10.98;2.42;;;;;;;14.56;48.12;100771.13;5034931;28;20045;-64
2024/03/23 05:01:18;;;;;;;8.48;2.53;;;;;;;14.55;48.63;100773.94;5017167;28;20405;-64
2024/03/23 05:03:43;;;;;;;7.03;2.40;;;;;;;14.50;47.85;100779.81;5017018;28;20401;-65
2024/03/23 05:06:09;;;;;;;11.50;1.58;;;;;;;14.48;48.51;100779.13;5035093;28;20037;-65
2024/03/23 05:08:34;;;;;;;8.02;1.77;;;;;;;14.46;48.42;100791.91;5001652;28;20022;-65
2024/03/23 05:10:59;;;;;;;9.70;2.33;;;;;;;14.46;49.09;100783.81;5034632;28;20122;-64
2024/03/23 05:13:25;;;;;;;4.38;1.42;;;;;;;14.43;48.37;100791.38;5016702;28;20060;-64
2024/03/23 05:15:54;;;;;;;13.02;2.15;;;;;;;14.42;48.98;100790.53;5016840;28;20405;-65
2024/03/23 05:18:19;;;;;;;8.50;1.73;;;;;;;14.39;48.13;100790.84;5016841;28;20524;-65
2024/03/23 05:20:45;;;;;;;4.30;2.05;;;;;;;14.39;48.84;100780.06;5016796;28;20029;-65
2024/03/23 05:23:10;;;;;;;5.78;1.50;;;;;;;14.32;48.59;100778.97;5016755;28;20041;-64
2024/03/23 05:25:35;;;;;;;14.52;2.30;;;;;;;14.36;48.28;100788.44;5016632;28;20029;-64
2024/03/23 05:28:01;;;;;;;9.32;2.33;;;;;;;14.32;49.24;100787.03;5016011;28;20027;-65
2024/03/23 05:30:26;;;;;;;9.60;1.73;;;;;;;14.31;48.61;100792.56;5016861;28;20036;-64
2024/03/23 05:32:51;;;;;;;13.45;3.13;;;;;;;14.28;48.59;100787.50;5034063;28;20053;-64
2024/03/23 05:35:17;;;;;;;5.80;2.00;;;;;;;14.27;49.14;100783.09;5016634;28;20033;-65
2024/03/23 05:37:42;;;;;;;11.20;2.72;;;;;;;14.26;48.38;100790.34;4999861;28;20025;-65
2024/03/23 05:40:09;;;;;;;4.65;1.88;;;;;;;14.24;48.29;100780.69;5000042;28;20037;-64
2024/03/23 05:42:34;;;;;;;5.47;2.20;;;;;;;14.25;47.98;100777.88;5016424;28;20048;-65
2024/03/23 05:45:00;;;;;;;8.13;2.53;;;;;;;14.26;49.07;100771.50;5000178;28;20496;-64
2024/03/23 05:47:25;;;;;;;9.52;2.22;;;;;;;14.25;48.58;100777.00;5016093;28;20025;-64
2024/03/23 05:49:52;;;;;;;11.73;2.80;;;;;;;14.25;48.80;100780.56;5016185;28;20517;-64
2024/03/23 05:52:17;;;;;;;7.60;2.35;;;;;;;14.27;49.03;100785.78;5016347;28;20036;-64
2024/03/23 05:54:42;;;;;;;9.43;2.65;;;;;;;14.27;47.85;100789.34;5016183;28;20512;-65
2024/03/23 05:57:09;;;;;;;6.50;1.55;;;;;;;14.29;48.96;100795.41;5017249;28;20052;-65
2024/03/23 05:59:34;;;;;;;13.02;2.33;;;;;;;14.29;48.42;100790.00;5016406;28;20038;-65
2024/03/23 06:02:00;;;;;;;10.43;3.00;;;;;;;14.32;48.10;100789.75;4999773;28;20413;-64
2024/03/23 06:04:25;;;;;;;11.52;2.97;;;;;;;14.33;47.59;100802.22;5016394;28;20116;-64
2024/03/23 06:06:53;;;;;;;8.93;2.40;;;;;;;14.38;47.72;100799.91;4999541;28;20033;-65
2024/03/23 06:09:19;;;;;;;12.85;2.47;;;;;;;14.40;47.75;100797.94;5033564;28;20110;-64
2024/03/23 06:11:45;;;;;;;11.55;2.17;;;;;;;14.46;49.00;100808.06;4999587;28;20068;-65
2024/03/23 06:14:10;;;;;;;9.13;3.22;;;;;;;14.58;47.78;100812.22;5033333;28;20033;-64
2024/03/23 06:16:35;;;;;;;8.10;2.10;;;;;;;14.73;48.17;100815.22;5033603;28;20044;-65
2024/03/23 06:19:03;;;;;;;8.63;3.33;;;;;;;14.86;47.77;100814.81;5033311;28;20029;-65
2024/03/23 06:21:29;;;;;;;10.50;2.75;;;;;;;15.05;48.63;100836.19;5017467;28;20025;-65
2024/03/23 06:23:54;;;;;;;7.88;2.75;;;;;;;15.22;48.57;100845.22;5015678;28;20079;-65
2024/03/23 06:26:22;;;;;;;8.70;3.15;;;;;;;15.22;48.19;100850.63;5015425;28;20065;-65
2024/03/23 06:28:48;;;;;;;12.48;4.35;;;;;;;15.12;49.07;100857.00;5015742;28;20026;-66
2024/03/23 06:31:13;;;;;;;8.57;3.20;;;;;;;15.01;48.69;100875.28;5033402;28;20036;-65
2024/03/23 06:33:40;;;;;;;7.15;2.17;;;;;;;14.87;48.13;100865.06;5015861;28;20374;-65
2024/03/23 06:36:05;;;;;;;2.88;1.02;;;;;;;14.74;48.07;100837.66;4999289;28;20111;-65
2024/03/23 06:38:31;;;;;;;1.58;0.85;;;;;;;14.61;47.84;100821.00;4995315;28;20089;-64
2024/03/23 06:40:56;;;;;;;2.25;0.98;;;;;;;14.55;47.35;100815.22;4995907;28;20504;-64
2024/03/23 06:43:22;;;;;;;2.15;0.60;;;;;;;14.49;47.66;100813.16;5012112;28;20556;-64
2024/03/23 06:45:54;;;;;;;3.40;1.35;;;;;;;14.51;47.49;100824.66;5013011;28;20036;-64
2024/03/23 06:48:19;;;;;;;3.88;1.60;;;;;;;14.50;48.17;100812.16;5014696;28;20520;-66
2024/03/23 06:50:46;;;;;;;9.02;1.30;;;;;;;14.48;47.46;100805.22;5012124;28;20045;-65
2024/03/23 06:53:12;;;;;;;2.38;1.05;;;;;;;14.46;47.77;100802.69;4995832;28;20456;-65
2024/03/23 06:55:37;;;;;;;5.68;1.05;;;;;;;14.49;47.64;100813.16;5012074;28;20030;-65
2024/03/23 06:58:02;;;;;;;4.35;0.90;;;;;;;14.55;47.35;100811.69;4995349;28;20062;-65
2024/03/23 07:00:28;;;;;;;9.80;1.42;;;;;;;14.75;46.66;100807.81;5011992;28;20030;-64
2024/03/23 07:02:55;;;;;;;3.20;1.00;;;;;;;15.01;47.10;100803.31;5012865;28;20050;-65
2024/03/23 07:05:20;;;;;;;2.30;1.00;;;;;;;15.31;45.47;100806.50;5011985;28;20044;-65
2024/03/23 07:07:45;;;;;;;5.43;1.40;;;;;;;15.57;46.86;100810.91;5011943;28;20033;-66
2024/03/23 07:10:11;;;;;;;2.80;1.17;;;;;;;15.83;45.96;100807.31;4995527;28;20041;-65
2024/03/23 07:12:36;;;;;;;4.68;1.35;;;;;;;15.85;46.80;100814.22;5013110;28;20554;-65
2024/03/23 07:15:02;;;;;;;6.95;1.52;;;;;;;16.14;45.68;100811.09;5011857;28;20030;-66
2024/03/23 07:17:27;;;;;;;2.45;1.40;;;;;;;16.41;45.79;100805.41;5011558;28;20033;-65
2024/03/23 07:19:53;;;;;;;3.10;1.38;;;;;;;16.65;44.87;100797.34;5012729;28;20089;-65
2024/03/23 07:22:18;;;;;;;5.18;1.38;;;;;;;16.92;45.11;100809.66;4995413;28;20040;-66
2024/03/23 07:24:44;;;;;;;7.40;2.10;;;;;;;17.12;45.16;100802.00;4995356;28;20506;-65
2024/03/23 07:27:09;;;;;;;3.20;1.83;;;;;;;17.39;44.88;100798.94;4995023;28;20037;-66
2024/03/23 07:29:36;;;;;;;10.90;2.70;;;;;;;17.61;44.90;100803.63;5012785;28;20022;-66
2024/03/23 07:32:01;;;;;;;6.72;2.78;;;;;;;17.82;44.12;100806.56;5011832;28;20038;-65
2024/03/23 07:34:26;;;;;;;11.43;4.03;;;;;;;18.04;44.32;100804.94;4995755;28;20108;-65
2024/03/23 07:36:52;;;;;;;5.40;2.63;;;;;;;18.26;44.34;100805.97;5012490;28;20058;-66
2024/03/23 07:39:17;;;;;;;6.00;3.30;;;;;;;18.47;43.96;100798.91;4995466;28;20552;-66
2024/03/23 07:41:45;;;;;;;14.80;3.35;;;;;;;18.60;44.33;100801.03;4995639;28;20022;-66
2024/03/23 07:44:10;;;;;;;8.00;3.35;;;;;;;18.76;43.99;100803.59;4995731;28;20064;-64
2024/03/23 07:46:35;;;;;;;8.45;3.90;;;;;;;18.94;43.83;100793.25;4995801;28;20112;-67
2024/03/23 07:49:01;;;;;;;12.30;4.15;;;;;;;19.15;43.92;100787.13;4996549;28;20022;-65
2024/03/23 07:51:26;;;;;;;7.88;4.03;;;;;;;19.36;43.94;100797.25;5022649;28;20014;-67
2024/03/23 07:53:52;;;;;;;8.63;2.88;;;;;;;19.61;43.11;100793.25;5025742;28;20045;-68
2024/03/23 07:56:18;;;;;;;10.95;3.22;;;;;;;19.52;43.77;100800.66;5022145;28;20464;-65
2024/03/23 07:58:45;;;;;;;5.43;2.47;;;;;;;19.75;42.75;100792.38;4999411;28;20029;-63
2024/03/23 08:01:15;;;;;;;11.65;2.80;;;;;;;19.90;42.86;100798.66;4998650;28;20084;-63
2024/03/23 08:03:41;;;;;;;8.20;3.30;;;;;;;20.00;43.06;100804.63;4998563;28;20022;-68
2024/03/23 08:06:14;;;;;;;14.85;2.90;;;;;;;19.68;43.21;100788.75;5015319;28;20051;-65
2024/03/23 08:08:40;;;;;;;;;;;;;;;19.46;43.58;100797.81;4999020;28;20030;-66
2024/03/23 08:11:05;;;;;;;10.52;2.22;;;;;;;19.44;43.06;100792.59;4998873;28;20000;-65
2024/03/23 08:13:32;;;;;;;12.90;2.40;;;;;;;19.49;42.98;100801.03;4998223;28;20026;-66
2024/03/23 08:16:03;;;;;;;7.10;2.00;;;;;;;19.24;42.95;100801.44;4998342;28;20121;-65
2024/03/23 08:18:28;;;;;;;8.38;2.78;;;;;;;19.05;43.32;100798.25;5014849;28;20041;-65
2024/03/23 08:21:04;;;;;;;6.80;2.10;;;;;;;19.02;43.20;100814.91;4998160;28;20033;-67
2024/03/23 08:23:33;;;;;;;11.40;2.40;;;;;;;19.24;42.82;100810.44;4998491;28;20038;-65
2024/03/23 08:26:03;;;;;;;11.65;2.60;;;;;;;19.19;42.38;100810.16;5015866;28;20041;-66
2024/03/23 08:28:28;;;;;;;10.13;2.47;;;;;;;19.35;42.83;100809.13;5014577;28;20034;-66
2024/03/23 08:30:55;;;;;;;23.10;2.80;;;;;;;19.30;42.59;100811.56;5014446;28;20103;-69
2024/03/23 08:33:21;;;;;;;5.50;1.73;;;;;;;19.51;42.30;100814.44;5014591;28;20030;-69
2024/03/23 08:35:56;;;;;;;9.13;1.42;;;;;;;19.43;42.48;100815.34;5014193;28;20520;-69
2024/03/23 08:38:25;;;;;;;6.47;1.98;;;;;;;19.87;41.71;100809.91;5014195;28;20033;-69
2024/03/23 08:41:20;;;;;;;7.97;1.48;;;;;;;19.95;41.78;100817.13;5015570;28;20524;-69
2024/03/23 08:43:45;;;;;;;4.57;1.33;;;;;;;19.76;41.67;100813.94;4981182;28;20528;-69
2024/03/23 08:46:15;;;;;;;8.23;2.10;;;;;;;19.63;41.40;100815.63;5017163;28;20120;-69
2024/03/23 08:48:45;;;;;;;6.25;1.63;;;;;;;20.00;40.38;100815.50;5000985;28;20164;-70
2024/03/23 08:51:13;;;;;;;10.88;2.20;;;;;;;19.98;40.65;100808.56;5017220;28;20033;-69
2024/03/23 08:53:39;;;;;;;8.35;1.40;;;;;;;20.17;41.25;100819.69;5000983;28;20030;-69
2024/03/23 08:56:08;;;;;;;9.30;2.05;;;;;;;20.44;40.83;100817.28;5017032;28;20029;-69
2024/03/23 08:58:34;;;;;;;13.65;2.17;;;;;;;20.86;40.09;100806.38;5034884;28;20541;-69
2024/03/23 09:01:13;;;;;;;7.03;1.20;;;;;;;20.61;40.49;100813.28;5000460;28;20103;-69
2024/03/23 09:03:38;;;;;;;6.40;1.40;;;;;;;20.56;40.53;100810.28;5016775;28;20037;-69
2024/03/23 09:06:22;;;;;;;6.82;1.65;;;;;;;20.54;40.77;100796.03;5017116;28;20497;-69
2024/03/23 09:08:47;;;;;;;9.07;1.27;;;;;;;20.47;40.33;100795.97;5033853;28;20041;-69
2024/03/23 09:11:13;;;;;;;5.38;1.35;;;;;;;20.38;39.97;100801.75;5016833;28;20025;-69
2024/03/23 09:13:39;;;;;;;5.60;2.08;;;;;;;20.62;39.54;100804.06;5034782;28;20024;-69
2024/03/23 09:16:05;;;;;;;5.97;1.27;;;;;;;20.39;39.83;100793.38;5017098;28;20048;-69
2024/03/23 09:18:38;;;;;;;11.07;1.65;;;;;;;20.71;39.91;100794.75;5016990;28;20401;-69
2024/03/23 09:21:04;;;;;;;13.85;1.50;;;;;;;20.50;40.44;100778.41;5034545;28;20025;-69
2024/03/23 09:23:29;;;;;;;10.70;1.17;;;;;;;20.63;40.21;100792.16;5034316;28;20512;-69
2024/03/23 09:25:55;;;;;;;12.27;1.08;;;;;;;20.29;41.05;100799.16;5016870;28;20033;-69
2024/03/23 09:28:20;;;;;;;3.15;1.08;;;;;;;20.03;39.92;100798.81;5034326;28;20033;-69
2024/03/23 09:30:45;;;;;;;6.05;1.33;;;;;;;20.83;39.01;100791.28;5016604;28;20064;-69
2024/03/23 09:33:12;;;;;;;6.05;1.25;;;;;;;20.45;39.67;100787.16;5016467;28;20037;-69
2024/03/23 09:35:42;;;;;;;5.13;1.48;;;;;;;20.06;39.36;100790.28;5000102;28;20100;-69
2024/03/23 09:38:08;;;;;;;2.97;1.02;;;;;;;20.30;39.73;100789.94;5000047;28;20037;-68
2024/03/23 09:40:34;;;;;;;8.23;1.35;;;;;;;20.22;39.94;100792.75;5016686;28;20022;-65
2024/03/23 09:42:59;;;;;;;3.42;0.80;;;;;;;19.90;39.22;100790.50;5016307;28;20046;-65
2024/03/23 09:45:28;;;;;;;7.47;0.93;;;;;;;20.89;38.50;100804.13;5034036;28;20048;-65
2024/03/23 09:47:57;;;;;;;4.93;1.13;;;;;;;20.72;38.72;100789.09;5033808;28;20104;-65
2024/03/23 09:50:22;;;;;;;7.45;1.23;;;;;;;21.39;37.13;100792.16;5016337;28;20025;-65
2024/03/23 09:52:48;;;;;;;6.10;0.90;;;;;;;22.96;35.56;100785.53;5033816;28;20080;-65
2024/03/23 09:55:14;;;;;;;6.75;0.80;;;;;;;23.08;35.68;100775.66;4999810;28;20034;-65
2024/03/23 09:57:40;;;;;;;2.78;0.90;;;;;;;23.19;35.94;100781.31;5015818;28;20505;-65
2024/03/23 10:00:08;;;;;;;4.50;1.00;;;;;;;23.72;35.22;100773.88;5033668;28;20038;-65
2024/03/23 10:02:36;;;;;;;6.63;1.02;;;;;;;24.01;35.02;100777.13;5034153;28;20057;-65
2024/03/23 10:05:02;;;;;;;3.40;1.20;;;;;;;24.46;34.27;100766.94;5016429;28;20037;-66
2024/03/23 10:07:28;;;;;;;5.07;0.77;;;;;;;23.89;35.36;100767.91;5033313;28;20374;-65
2024/03/23 10:09:54;;;;;;;5.40;1.00;;;;;;;23.87;34.52;100773.56;5033771;28;20037;-67
2024/03/23 10:12:20;;;;;;;9.25;1.13;;;;;;;23.24;35.40;100775.22;5015956;28;20520;-66
2024/03/23 10:14:46;;;;;;;6.70;1.20;;;;;;;24.03;34.71;100783.19;5015721;28;20480;-67
2024/03/23 10:17:13;;;;;;;19.75;1.90;;;;;;;24.74;34.08;100775.59;5016060;28;20087;-66
2024/03/23 10:19:39;;;;;;;6.50;1.40;;;;;;;25.47;33.09;100771.19;5033551;28;20033;-67
2024/03/23 10:22:04;;;;;;;2.28;0.90;;;;;;;25.57;33.25;100771.50;5033495;28;20037;-68
2024/03/23 10:24:29;;;;;;;3.92;0.90;;;;;;;24.52;33.97;100777.03;5033354;28;20587;-66
2024/03/23 10:26:58;;;;;;;2.60;0.73;;;;;;;23.74;35.07;100766.28;5015702;28;20075;-67
2024/03/23 10:29:23;;;;;;;7.05;1.23;;;;;;;23.30;35.08;100782.56;5015651;28;20123;-67
2024/03/23 10:31:50;;;;;;;5.88;1.52;;;;;;;24.61;33.15;100765.59;5015430;28;20501;-67
2024/03/23 10:34:15;;;;;;;1.90;1.35;;;;;;;25.50;32.33;100769.88;5033349;28;20398;-67
2024/03/23 10:36:41;;;;;;;5.88;1.35;;;;;;;26.00;32.52;100758.50;4999337;28;20071;-65
2024/03/23 10:39:07;;;;;;;2.28;1.15;;;;;;;26.56;31.13;100762.78;4999041;28;20041;-65
2024/03/23 10:41:33;;;;;;;4.53;0.75;;;;;;;26.99;31.05;100755.13;5015354;28;20030;-65
2024/03/23 10:43:59;;;;;;;8.20;1.17;;;;;;;27.23;30.31;100747.69;5015526;28;20041;-67
2024/03/23 10:46:25;;;;;;;4.13;0.98;;;;;;;27.49;30.22;100761.00;5015719;28;20433;-66
2024/03/23 10:48:50;;;;;;;4.28;1.10;;;;;;;27.74;29.76;100753.28;5015325;28;20547;-67
2024/03/23 10:51:15;;;;;;;4.38;1.20;;;;;;;27.94;29.76;100747.34;5015424;28;20516;-67
2024/03/23 10:53:42;;;;;;;7.05;1.10;;;;;;;28.21;29.34;100739.34;5015436;28;20026;-66
2024/03/23 10:56:08;;;;;;;5.28;1.25;;;;;;;28.46;29.32;100742.56;5032718;28;20041;-67
2024/03/23 10:58:43;;;;;;;4.68;1.08;;;;;;;28.56;28.78;100751.00;5015272;28;20517;-66
2024/03/23 11:01:13;;;;;;;5.10;1.42;;;;;;;28.52;29.24;100749.00;4998721;28;20128;-67
2024/03/23 11:03:40;;;;;;;4.00;0.98;;;;;;;28.61;28.55;100747.53;4998675;28;20026;-68
2024/03/23 11:06:06;;;;;;;4.70;1.33;;;;;;;28.98;28.17;100753.41;5015398;28;20030;-68
2024/03/23 11:08:39;;;;;;;2.17;0.40;;;;;;;29.45;27.95;100772.09;5015129;28;20167;-68
2024/03/23 11:11:24;;;;;;;2.08;0.35;;;;;;;28.38;28.73;100789.00;5015392;28;20067;-68
2024/03/23 11:13:54;;;;;;;3.90;0.65;;;;;;;26.99;29.46;100810.13;5015146;28;20542;-67
2024/03/23 11:16:35;;;;;;;6.10;0.70;;;;;;;25.69;30.73;100824.53;5015132;28;20044;-66
2024/03/23 11:19:39;;;;;;;1.00;0.30;;;;;;;24.41;31.05;100841.56;5015880;28;20400;-65
2024/03/23 11:22:05;;;;;;;4.07;0.52;;;;;;;23.19;32.30;100849.66;4979512;28;20044;-66